<?xml version="1.0" encoding="UTF-8" standalone="no" ?>
<gpx xmlns="http://www.topografix.com/GPX/1/1" xmlns:xsi="http://www.w3.org/2001/XMLSchema-instance" xsi:schemaLocation="http://www.topografix.com/GPX/1/1 http://www.topografix.com/GPX/1/1/gpx.xsd" version="1.1" creator="VisuGPX - https://www.visugpx.com">
  <metadata>
    <name>Belvédère Du Fer À Cheval</name>
    <desc><![CDATA[Route created on plotaroute.com]]></desc>
  </metadata>
  <trk>
    <name><![CDATA[Belvédère Du Fer À Cheval]]></name>
    <trkseg>
      <trkpt lat="46.87863" lon="5.80536">
        <ele>331</ele>
        <time>2022-06-05T00:00:00Z</time>
      </trkpt>
      <trkpt lat="46.87867" lon="5.80536">
        <ele>331</ele>
        <time>2022-06-05T00:00:03Z</time>
      </trkpt>
      <trkpt lat="46.87866" lon="5.80517">
        <ele>333</ele>
        <time>2022-06-05T00:00:14Z</time>
      </trkpt>
      <trkpt lat="46.87867" lon="5.80504">
        <ele>334</ele>
        <time>2022-06-05T00:00:21Z</time>
      </trkpt>
      <trkpt lat="46.87871" lon="5.80495">
        <ele>336</ele>
        <time>2022-06-05T00:00:27Z</time>
      </trkpt>
      <trkpt lat="46.87878" lon="5.80484">
        <ele>340</ele>
        <time>2022-06-05T00:00:35Z</time>
      </trkpt>
      <trkpt lat="46.87952" lon="5.80425">
        <ele>353</ele>
        <time>2022-06-05T00:01:43Z</time>
      </trkpt>
      <trkpt lat="46.88046" lon="5.8037">
        <ele>355</ele>
        <time>2022-06-05T00:03:04Z</time>
      </trkpt>
      <trkpt lat="46.88072" lon="5.80342">
        <ele>359</ele>
        <time>2022-06-05T00:03:30Z</time>
      </trkpt>
      <trkpt lat="46.88101" lon="5.80323">
        <ele>359</ele>
        <time>2022-06-05T00:03:55Z</time>
      </trkpt>
      <trkpt lat="46.88114" lon="5.8032">
        <ele>358</ele>
        <time>2022-06-05T00:04:05Z</time>
      </trkpt>
      <trkpt lat="46.8812" lon="5.80315">
        <ele>358</ele>
        <time>2022-06-05T00:04:11Z</time>
      </trkpt>
      <trkpt lat="46.88126" lon="5.80309">
        <ele>358</ele>
        <time>2022-06-05T00:04:17Z</time>
      </trkpt>
      <trkpt lat="46.88128" lon="5.80299">
        <ele>360</ele>
        <time>2022-06-05T00:04:22Z</time>
      </trkpt>
      <trkpt lat="46.88126" lon="5.80289">
        <ele>363</ele>
        <time>2022-06-05T00:04:28Z</time>
      </trkpt>
      <trkpt lat="46.88128" lon="5.80284">
        <ele>364</ele>
        <time>2022-06-05T00:04:31Z</time>
      </trkpt>
      <trkpt lat="46.88129" lon="5.80276">
        <ele>366</ele>
        <time>2022-06-05T00:04:36Z</time>
      </trkpt>
      <trkpt lat="46.88125" lon="5.80267">
        <ele>368</ele>
        <time>2022-06-05T00:04:42Z</time>
      </trkpt>
      <trkpt lat="46.88125" lon="5.80255">
        <ele>371</ele>
        <time>2022-06-05T00:04:48Z</time>
      </trkpt>
      <trkpt lat="46.8813" lon="5.80242">
        <ele>375</ele>
        <time>2022-06-05T00:04:56Z</time>
      </trkpt>
      <trkpt lat="46.88133" lon="5.80239">
        <ele>376</ele>
        <time>2022-06-05T00:04:59Z</time>
      </trkpt>
      <trkpt lat="46.8814" lon="5.80237">
        <ele>376</ele>
        <time>2022-06-05T00:05:05Z</time>
      </trkpt>
      <trkpt lat="46.88159" lon="5.80212">
        <ele>384</ele>
        <time>2022-06-05T00:05:26Z</time>
      </trkpt>
      <trkpt lat="46.88179" lon="5.80199">
        <ele>387</ele>
        <time>2022-06-05T00:05:43Z</time>
      </trkpt>
      <trkpt lat="46.88188" lon="5.8019">
        <ele>390</ele>
        <time>2022-06-05T00:05:52Z</time>
      </trkpt>
      <trkpt lat="46.88208" lon="5.80159">
        <ele>401</ele>
        <time>2022-06-05T00:06:15Z</time>
      </trkpt>
      <trkpt lat="46.88219" lon="5.80145">
        <ele>405</ele>
        <time>2022-06-05T00:06:27Z</time>
      </trkpt>
      <trkpt lat="46.88227" lon="5.80137">
        <ele>408</ele>
        <time>2022-06-05T00:06:35Z</time>
      </trkpt>
      <trkpt lat="46.88262" lon="5.80117">
        <ele>412</ele>
        <time>2022-06-05T00:07:05Z</time>
      </trkpt>
      <trkpt lat="46.88301" lon="5.8009">
        <ele>417</ele>
        <time>2022-06-05T00:07:39Z</time>
      </trkpt>
      <trkpt lat="46.8833" lon="5.80052">
        <ele>426</ele>
        <time>2022-06-05T00:08:11Z</time>
      </trkpt>
      <trkpt lat="46.88344" lon="5.80039">
        <ele>429</ele>
        <time>2022-06-05T00:08:24Z</time>
      </trkpt>
      <trkpt lat="46.88361" lon="5.80027">
        <ele>432</ele>
        <time>2022-06-05T00:08:39Z</time>
      </trkpt>
      <trkpt lat="46.88369" lon="5.80025">
        <ele>432</ele>
        <time>2022-06-05T00:08:46Z</time>
      </trkpt>
      <trkpt lat="46.88387" lon="5.80011">
        <ele>435</ele>
        <time>2022-06-05T00:09:02Z</time>
      </trkpt>
      <trkpt lat="46.88402" lon="5.7999">
        <ele>441</ele>
        <time>2022-06-05T00:09:18Z</time>
      </trkpt>
      <trkpt lat="46.88467" lon="5.79937">
        <ele>453</ele>
        <time>2022-06-05T00:10:18Z</time>
      </trkpt>
      <trkpt lat="46.88487" lon="5.79913">
        <ele>459</ele>
        <time>2022-06-05T00:10:39Z</time>
      </trkpt>
      <trkpt lat="46.88516" lon="5.79872">
        <ele>472</ele>
        <time>2022-06-05T00:11:12Z</time>
      </trkpt>
      <trkpt lat="46.88523" lon="5.79858">
        <ele>476</ele>
        <time>2022-06-05T00:11:21Z</time>
      </trkpt>
      <trkpt lat="46.88555" lon="5.79821">
        <ele>488</ele>
        <time>2022-06-05T00:11:54Z</time>
      </trkpt>
      <trkpt lat="46.88561" lon="5.79811">
        <ele>492</ele>
        <time>2022-06-05T00:12:01Z</time>
      </trkpt>
      <trkpt lat="46.88573" lon="5.79783">
        <ele>504</ele>
        <time>2022-06-05T00:12:19Z</time>
      </trkpt>
      <trkpt lat="46.88596" lon="5.79746">
        <ele>518</ele>
        <time>2022-06-05T00:12:46Z</time>
      </trkpt>
      <trkpt lat="46.88604" lon="5.79742">
        <ele>518</ele>
        <time>2022-06-05T00:12:53Z</time>
      </trkpt>
      <trkpt lat="46.88634" lon="5.79717">
        <ele>520</ele>
        <time>2022-06-05T00:13:21Z</time>
      </trkpt>
      <trkpt lat="46.88663" lon="5.79704">
        <ele>517</ele>
        <time>2022-06-05T00:13:45Z</time>
      </trkpt>
      <trkpt lat="46.88645" lon="5.79681">
        <ele>528</ele>
        <time>2022-06-05T00:14:04Z</time>
      </trkpt>
      <trkpt lat="46.8863" lon="5.79678">
        <ele>533</ele>
        <time>2022-06-05T00:14:16Z</time>
      </trkpt>
      <trkpt lat="46.88611" lon="5.79653">
        <ele>543</ele>
        <time>2022-06-05T00:14:37Z</time>
      </trkpt>
      <trkpt lat="46.88602" lon="5.79659">
        <ele>545</ele>
        <time>2022-06-05T00:14:45Z</time>
      </trkpt>
      <trkpt lat="46.88575" lon="5.79657">
        <ele>553</ele>
        <time>2022-06-05T00:15:06Z</time>
      </trkpt>
      <trkpt lat="46.88532" lon="5.79646">
        <ele>561</ele>
        <time>2022-06-05T00:15:41Z</time>
      </trkpt>
      <trkpt lat="46.88511" lon="5.79642">
        <ele>565</ele>
        <time>2022-06-05T00:15:58Z</time>
      </trkpt>
      <trkpt lat="46.88493" lon="5.79642">
        <ele>567</ele>
        <time>2022-06-05T00:16:13Z</time>
      </trkpt>
      <trkpt lat="46.88485" lon="5.79655">
        <ele>566</ele>
        <time>2022-06-05T00:16:22Z</time>
      </trkpt>
      <trkpt lat="46.88468" lon="5.79657">
        <ele>566</ele>
        <time>2022-06-05T00:16:36Z</time>
      </trkpt>
      <trkpt lat="46.88443" lon="5.79631">
        <ele>570</ele>
        <time>2022-06-05T00:17:00Z</time>
      </trkpt>
      <trkpt lat="46.88418" lon="5.79579">
        <ele>576</ele>
        <time>2022-06-05T00:17:35Z</time>
      </trkpt>
      <trkpt lat="46.88406" lon="5.79557">
        <ele>578</ele>
        <time>2022-06-05T00:17:51Z</time>
      </trkpt>
      <trkpt lat="46.8838" lon="5.79535">
        <ele>580</ele>
        <time>2022-06-05T00:18:14Z</time>
      </trkpt>
      <trkpt lat="46.88355" lon="5.79536">
        <ele>580</ele>
        <time>2022-06-05T00:18:35Z</time>
      </trkpt>
      <trkpt lat="46.88242" lon="5.79528">
        <ele>575</ele>
        <time>2022-06-05T00:20:05Z</time>
      </trkpt>
      <trkpt lat="46.88199" lon="5.79543">
        <ele>575</ele>
        <time>2022-06-05T00:20:41Z</time>
      </trkpt>
      <trkpt lat="46.88133" lon="5.79554">
        <ele>574</ele>
        <time>2022-06-05T00:21:34Z</time>
      </trkpt>
      <trkpt lat="46.88078" lon="5.79603">
        <ele>573</ele>
        <time>2022-06-05T00:22:25Z</time>
      </trkpt>
      <trkpt lat="46.87911" lon="5.79605">
        <ele>572</ele>
        <time>2022-06-05T00:24:40Z</time>
      </trkpt>
      <trkpt lat="46.87898" lon="5.79603">
        <ele>572</ele>
        <time>2022-06-05T00:24:50Z</time>
      </trkpt>
      <trkpt lat="46.8776" lon="5.79654">
        <ele>579</ele>
        <time>2022-06-05T00:26:44Z</time>
      </trkpt>
      <trkpt lat="46.8774" lon="5.79665">
        <ele>580</ele>
        <time>2022-06-05T00:27:01Z</time>
      </trkpt>
      <trkpt lat="46.87686" lon="5.7969">
        <ele>577</ele>
        <time>2022-06-05T00:27:47Z</time>
      </trkpt>
      <trkpt lat="46.87607" lon="5.79714">
        <ele>571</ele>
        <time>2022-06-05T00:28:51Z</time>
      </trkpt>
      <trkpt lat="46.87563" lon="5.79712">
        <ele>568</ele>
        <time>2022-06-05T00:29:27Z</time>
      </trkpt>
      <trkpt lat="46.87528" lon="5.79731">
        <ele>566</ele>
        <time>2022-06-05T00:29:57Z</time>
      </trkpt>
      <trkpt lat="46.87521" lon="5.79738">
        <ele>566</ele>
        <time>2022-06-05T00:30:03Z</time>
      </trkpt>
      <trkpt lat="46.87508" lon="5.79754">
        <ele>565</ele>
        <time>2022-06-05T00:30:17Z</time>
      </trkpt>
      <trkpt lat="46.87487" lon="5.79763">
        <ele>563</ele>
        <time>2022-06-05T00:30:34Z</time>
      </trkpt>
      <trkpt lat="46.87455" lon="5.79762">
        <ele>564</ele>
        <time>2022-06-05T00:31:00Z</time>
      </trkpt>
      <trkpt lat="46.87377" lon="5.79773">
        <ele>562</ele>
        <time>2022-06-05T00:32:02Z</time>
      </trkpt>
      <trkpt lat="46.87342" lon="5.79771">
        <ele>562</ele>
        <time>2022-06-05T00:32:30Z</time>
      </trkpt>
      <trkpt lat="46.87287" lon="5.79776">
        <ele>560</ele>
        <time>2022-06-05T00:33:15Z</time>
      </trkpt>
      <trkpt lat="46.87247" lon="5.79786">
        <ele>556</ele>
        <time>2022-06-05T00:33:48Z</time>
      </trkpt>
      <trkpt lat="46.87218" lon="5.79783">
        <ele>559</ele>
        <time>2022-06-05T00:34:10Z</time>
      </trkpt>
      <trkpt lat="46.87179" lon="5.79793">
        <ele>560</ele>
        <time>2022-06-05T00:34:42Z</time>
      </trkpt>
      <trkpt lat="46.87155" lon="5.79802">
        <ele>560</ele>
        <time>2022-06-05T00:35:02Z</time>
      </trkpt>
      <trkpt lat="46.87123" lon="5.79806">
        <ele>563</ele>
        <time>2022-06-05T00:35:28Z</time>
      </trkpt>
      <trkpt lat="46.87106" lon="5.79832">
        <ele>564</ele>
        <time>2022-06-05T00:35:48Z</time>
      </trkpt>
      <trkpt lat="46.87079" lon="5.79888">
        <ele>564</ele>
        <time>2022-06-05T00:36:25Z</time>
      </trkpt>
      <trkpt lat="46.87041" lon="5.79984">
        <ele>556</ele>
        <time>2022-06-05T00:37:26Z</time>
      </trkpt>
      <trkpt lat="46.87011" lon="5.80033">
        <ele>558</ele>
        <time>2022-06-05T00:38:02Z</time>
      </trkpt>
      <trkpt lat="46.86992" lon="5.80067">
        <ele>561</ele>
        <time>2022-06-05T00:38:26Z</time>
      </trkpt>
      <trkpt lat="46.86975" lon="5.80084">
        <ele>561</ele>
        <time>2022-06-05T00:38:42Z</time>
      </trkpt>
      <trkpt lat="46.86956" lon="5.80089">
        <ele>562</ele>
        <time>2022-06-05T00:38:58Z</time>
      </trkpt>
      <trkpt lat="46.86942" lon="5.80103">
        <ele>563</ele>
        <time>2022-06-05T00:39:11Z</time>
      </trkpt>
      <trkpt lat="46.86928" lon="5.80106">
        <ele>564</ele>
        <time>2022-06-05T00:39:23Z</time>
      </trkpt>
      <trkpt lat="46.86905" lon="5.80118">
        <ele>565</ele>
        <time>2022-06-05T00:39:43Z</time>
      </trkpt>
      <trkpt lat="46.8688" lon="5.80123">
        <ele>566</ele>
        <time>2022-06-05T00:40:03Z</time>
      </trkpt>
      <trkpt lat="46.86828" lon="5.80151">
        <ele>567</ele>
        <time>2022-06-05T00:40:47Z</time>
      </trkpt>
      <trkpt lat="46.86798" lon="5.80176">
        <ele>568</ele>
        <time>2022-06-05T00:41:15Z</time>
      </trkpt>
      <trkpt lat="46.86788" lon="5.80173">
        <ele>568</ele>
        <time>2022-06-05T00:41:23Z</time>
      </trkpt>
      <trkpt lat="46.86765" lon="5.80216">
        <ele>568</ele>
        <time>2022-06-05T00:41:53Z</time>
      </trkpt>
      <trkpt lat="46.86765" lon="5.80231">
        <ele>568</ele>
        <time>2022-06-05T00:42:01Z</time>
      </trkpt>
      <trkpt lat="46.86778" lon="5.80285">
        <ele>564</ele>
        <time>2022-06-05T00:42:33Z</time>
      </trkpt>
      <trkpt lat="46.86763" lon="5.80335">
        <ele>559</ele>
        <time>2022-06-05T00:43:03Z</time>
      </trkpt>
      <trkpt lat="46.86747" lon="5.80348">
        <ele>555</ele>
        <time>2022-06-05T00:43:17Z</time>
      </trkpt>
      <trkpt lat="46.86735" lon="5.80344">
        <ele>556</ele>
        <time>2022-06-05T00:43:27Z</time>
      </trkpt>
      <trkpt lat="46.86701" lon="5.80349">
        <ele>555</ele>
        <time>2022-06-05T00:43:54Z</time>
      </trkpt>
      <trkpt lat="46.86672" lon="5.80363">
        <ele>552</ele>
        <time>2022-06-05T00:44:19Z</time>
      </trkpt>
      <trkpt lat="46.86641" lon="5.80365">
        <ele>552</ele>
        <time>2022-06-05T00:44:43Z</time>
      </trkpt>
      <trkpt lat="46.86613" lon="5.80357">
        <ele>554</ele>
        <time>2022-06-05T00:45:06Z</time>
      </trkpt>
      <trkpt lat="46.86597" lon="5.80359">
        <ele>554</ele>
        <time>2022-06-05T00:45:19Z</time>
      </trkpt>
      <trkpt lat="46.86577" lon="5.80375">
        <ele>552</ele>
        <time>2022-06-05T00:45:37Z</time>
      </trkpt>
      <trkpt lat="46.86568" lon="5.80395">
        <ele>549</ele>
        <time>2022-06-05T00:45:51Z</time>
      </trkpt>
      <trkpt lat="46.86554" lon="5.80418">
        <ele>548</ele>
        <time>2022-06-05T00:46:08Z</time>
      </trkpt>
      <trkpt lat="46.86537" lon="5.80448">
        <ele>548</ele>
        <time>2022-06-05T00:46:28Z</time>
      </trkpt>
      <trkpt lat="46.86514" lon="5.80459">
        <ele>551</ele>
        <time>2022-06-05T00:46:48Z</time>
      </trkpt>
      <trkpt lat="46.86488" lon="5.80457">
        <ele>555</ele>
        <time>2022-06-05T00:47:09Z</time>
      </trkpt>
      <trkpt lat="46.86473" lon="5.80454">
        <ele>557</ele>
        <time>2022-06-05T00:47:21Z</time>
      </trkpt>
      <trkpt lat="46.86463" lon="5.80444">
        <ele>559</ele>
        <time>2022-06-05T00:47:31Z</time>
      </trkpt>
      <trkpt lat="46.8642" lon="5.80538">
        <ele>559</ele>
        <time>2022-06-05T00:48:32Z</time>
      </trkpt>
      <trkpt lat="46.86393" lon="5.80591">
        <ele>555</ele>
        <time>2022-06-05T00:49:09Z</time>
      </trkpt>
      <trkpt lat="46.86402" lon="5.80601">
        <ele>554</ele>
        <time>2022-06-05T00:49:18Z</time>
      </trkpt>
      <trkpt lat="46.86434" lon="5.80645">
        <ele>551</ele>
        <time>2022-06-05T00:49:53Z</time>
      </trkpt>
      <trkpt lat="46.86436" lon="5.8065">
        <ele>551</ele>
        <time>2022-06-05T00:49:56Z</time>
      </trkpt>
      <trkpt lat="46.86443" lon="5.807">
        <ele>550</ele>
        <time>2022-06-05T00:50:24Z</time>
      </trkpt>
      <trkpt lat="46.86464" lon="5.80727">
        <ele>551</ele>
        <time>2022-06-05T00:50:47Z</time>
      </trkpt>
      <trkpt lat="46.86531" lon="5.80791">
        <ele>549</ele>
        <time>2022-06-05T00:51:50Z</time>
      </trkpt>
      <trkpt lat="46.86542" lon="5.80805">
        <ele>548</ele>
        <time>2022-06-05T00:52:02Z</time>
      </trkpt>
      <trkpt lat="46.86574" lon="5.80855">
        <ele>545</ele>
        <time>2022-06-05T00:52:40Z</time>
      </trkpt>
      <trkpt lat="46.86577" lon="5.80864">
        <ele>545</ele>
        <time>2022-06-05T00:52:45Z</time>
      </trkpt>
      <trkpt lat="46.8658" lon="5.80882">
        <ele>544</ele>
        <time>2022-06-05T00:52:55Z</time>
      </trkpt>
      <trkpt lat="46.86581" lon="5.80905">
        <ele>543</ele>
        <time>2022-06-05T00:53:08Z</time>
      </trkpt>
      <trkpt lat="46.86572" lon="5.80956">
        <ele>541</ele>
        <time>2022-06-05T00:53:37Z</time>
      </trkpt>
      <trkpt lat="46.86576" lon="5.80979">
        <ele>541</ele>
        <time>2022-06-05T00:53:50Z</time>
      </trkpt>
      <trkpt lat="46.86579" lon="5.80984">
        <ele>541</ele>
        <time>2022-06-05T00:53:53Z</time>
      </trkpt>
      <trkpt lat="46.8659" lon="5.80995">
        <ele>540</ele>
        <time>2022-06-05T00:54:04Z</time>
      </trkpt>
      <trkpt lat="46.86638" lon="5.81023">
        <ele>541</ele>
        <time>2022-06-05T00:54:46Z</time>
      </trkpt>
      <trkpt lat="46.86648" lon="5.81035">
        <ele>541</ele>
        <time>2022-06-05T00:54:56Z</time>
      </trkpt>
      <trkpt lat="46.8665" lon="5.81045">
        <ele>541</ele>
        <time>2022-06-05T00:55:02Z</time>
      </trkpt>
      <trkpt lat="46.86664" lon="5.81031">
        <ele>541</ele>
        <time>2022-06-05T00:55:15Z</time>
      </trkpt>
      <trkpt lat="46.86679" lon="5.81011">
        <ele>541</ele>
        <time>2022-06-05T00:55:31Z</time>
      </trkpt>
      <trkpt lat="46.86691" lon="5.80989">
        <ele>542</ele>
        <time>2022-06-05T00:55:47Z</time>
      </trkpt>
      <trkpt lat="46.86697" lon="5.80972">
        <ele>542</ele>
        <time>2022-06-05T00:55:58Z</time>
      </trkpt>
      <trkpt lat="46.86697" lon="5.80973">
        <ele>542</ele>
        <time>2022-06-05T00:55:58Z</time>
      </trkpt>
      <trkpt lat="46.86697" lon="5.80972">
        <ele>542</ele>
        <time>2022-06-05T00:55:59Z</time>
      </trkpt>
      <trkpt lat="46.86741" lon="5.80966">
        <ele>543</ele>
        <time>2022-06-05T00:56:34Z</time>
      </trkpt>
      <trkpt lat="46.86776" lon="5.80958">
        <ele>532</ele>
        <time>2022-06-05T00:57:02Z</time>
      </trkpt>
      <trkpt lat="46.86783" lon="5.80967">
        <ele>530</ele>
        <time>2022-06-05T00:57:09Z</time>
      </trkpt>
      <trkpt lat="46.86785" lon="5.80979">
        <ele>530</ele>
        <time>2022-06-05T00:57:16Z</time>
      </trkpt>
      <trkpt lat="46.86795" lon="5.8101">
        <ele>531</ele>
        <time>2022-06-05T00:57:35Z</time>
      </trkpt>
      <trkpt lat="46.86803" lon="5.81019">
        <ele>529</ele>
        <time>2022-06-05T00:57:43Z</time>
      </trkpt>
      <trkpt lat="46.86819" lon="5.81043">
        <ele>529</ele>
        <time>2022-06-05T00:58:01Z</time>
      </trkpt>
      <trkpt lat="46.86829" lon="5.81068">
        <ele>532</ele>
        <time>2022-06-05T00:58:17Z</time>
      </trkpt>
      <trkpt lat="46.86848" lon="5.81094">
        <ele>532</ele>
        <time>2022-06-05T00:58:38Z</time>
      </trkpt>
      <trkpt lat="46.8687" lon="5.81128">
        <ele>534</ele>
        <time>2022-06-05T00:59:04Z</time>
      </trkpt>
      <trkpt lat="46.86883" lon="5.81138">
        <ele>534</ele>
        <time>2022-06-05T00:59:16Z</time>
      </trkpt>
      <trkpt lat="46.86902" lon="5.81141">
        <ele>534</ele>
        <time>2022-06-05T00:59:31Z</time>
      </trkpt>
      <trkpt lat="46.86911" lon="5.81137">
        <ele>532</ele>
        <time>2022-06-05T00:59:39Z</time>
      </trkpt>
      <trkpt lat="46.86944" lon="5.81138">
        <ele>534</ele>
        <time>2022-06-05T01:00:05Z</time>
      </trkpt>
      <trkpt lat="46.87021" lon="5.811">
        <ele>530</ele>
        <time>2022-06-05T01:01:10Z</time>
      </trkpt>
      <trkpt lat="46.87073" lon="5.81069">
        <ele>525</ele>
        <time>2022-06-05T01:01:55Z</time>
      </trkpt>
      <trkpt lat="46.8709" lon="5.81048">
        <ele>519</ele>
        <time>2022-06-05T01:02:13Z</time>
      </trkpt>
      <trkpt lat="46.87094" lon="5.81039">
        <ele>515</ele>
        <time>2022-06-05T01:02:19Z</time>
      </trkpt>
      <trkpt lat="46.87106" lon="5.8103">
        <ele>511</ele>
        <time>2022-06-05T01:02:30Z</time>
      </trkpt>
      <trkpt lat="46.87134" lon="5.81032">
        <ele>510</ele>
        <time>2022-06-05T01:02:53Z</time>
      </trkpt>
      <trkpt lat="46.87159" lon="5.81044">
        <ele>514</ele>
        <time>2022-06-05T01:03:13Z</time>
      </trkpt>
      <trkpt lat="46.87211" lon="5.81046">
        <ele>517</ele>
        <time>2022-06-05T01:03:55Z</time>
      </trkpt>
      <trkpt lat="46.87233" lon="5.8103">
        <ele>512</ele>
        <time>2022-06-05T01:04:15Z</time>
      </trkpt>
      <trkpt lat="46.87245" lon="5.81016">
        <ele>508</ele>
        <time>2022-06-05T01:04:27Z</time>
      </trkpt>
      <trkpt lat="46.8727" lon="5.81009">
        <ele>505</ele>
        <time>2022-06-05T01:04:47Z</time>
      </trkpt>
      <trkpt lat="46.87289" lon="5.81033">
        <ele>509</ele>
        <time>2022-06-05T01:05:07Z</time>
      </trkpt>
      <trkpt lat="46.87305" lon="5.81045">
        <ele>509</ele>
        <time>2022-06-05T01:05:22Z</time>
      </trkpt>
      <trkpt lat="46.87329" lon="5.81077">
        <ele>509</ele>
        <time>2022-06-05T01:05:48Z</time>
      </trkpt>
      <trkpt lat="46.87341" lon="5.8109">
        <ele>507</ele>
        <time>2022-06-05T01:06:00Z</time>
      </trkpt>
      <trkpt lat="46.87362" lon="5.81096">
        <ele>500</ele>
        <time>2022-06-05T01:06:17Z</time>
      </trkpt>
      <trkpt lat="46.87377" lon="5.81095">
        <ele>494</ele>
        <time>2022-06-05T01:06:29Z</time>
      </trkpt>
      <trkpt lat="46.87397" lon="5.81114">
        <ele>490</ele>
        <time>2022-06-05T01:06:48Z</time>
      </trkpt>
      <trkpt lat="46.874" lon="5.8113">
        <ele>491</ele>
        <time>2022-06-05T01:06:57Z</time>
      </trkpt>
      <trkpt lat="46.87407" lon="5.81151">
        <ele>493</ele>
        <time>2022-06-05T01:07:10Z</time>
      </trkpt>
      <trkpt lat="46.87417" lon="5.81175">
        <ele>494</ele>
        <time>2022-06-05T01:07:25Z</time>
      </trkpt>
      <trkpt lat="46.87454" lon="5.81241">
        <ele>501</ele>
        <time>2022-06-05T01:08:12Z</time>
      </trkpt>
      <trkpt lat="46.87472" lon="5.81281">
        <ele>510</ele>
        <time>2022-06-05T01:08:38Z</time>
      </trkpt>
      <trkpt lat="46.87486" lon="5.813">
        <ele>514</ele>
        <time>2022-06-05T01:08:53Z</time>
      </trkpt>
      <trkpt lat="46.87511" lon="5.8132">
        <ele>517</ele>
        <time>2022-06-05T01:09:17Z</time>
      </trkpt>
      <trkpt lat="46.87521" lon="5.81325">
        <ele>519</ele>
        <time>2022-06-05T01:09:25Z</time>
      </trkpt>
      <trkpt lat="46.87568" lon="5.81336">
        <ele>517</ele>
        <time>2022-06-05T01:10:03Z</time>
      </trkpt>
      <trkpt lat="46.87585" lon="5.81344">
        <ele>518</ele>
        <time>2022-06-05T01:10:17Z</time>
      </trkpt>
      <trkpt lat="46.87615" lon="5.81375">
        <ele>527</ele>
        <time>2022-06-05T01:10:47Z</time>
      </trkpt>
      <trkpt lat="46.8767" lon="5.81423">
        <ele>525</ele>
        <time>2022-06-05T01:11:38Z</time>
      </trkpt>
      <trkpt lat="46.87685" lon="5.81442">
        <ele>528</ele>
        <time>2022-06-05T01:11:54Z</time>
      </trkpt>
      <trkpt lat="46.8769" lon="5.81446">
        <ele>528</ele>
        <time>2022-06-05T01:11:59Z</time>
      </trkpt>
      <trkpt lat="46.87703" lon="5.81447">
        <ele>528</ele>
        <time>2022-06-05T01:12:09Z</time>
      </trkpt>
      <trkpt lat="46.87713" lon="5.81444">
        <ele>527</ele>
        <time>2022-06-05T01:12:17Z</time>
      </trkpt>
      <trkpt lat="46.87721" lon="5.81446">
        <ele>527</ele>
        <time>2022-06-05T01:12:23Z</time>
      </trkpt>
      <trkpt lat="46.87729" lon="5.81456">
        <ele>527</ele>
        <time>2022-06-05T01:12:32Z</time>
      </trkpt>
      <trkpt lat="46.87735" lon="5.81467">
        <ele>527</ele>
        <time>2022-06-05T01:12:40Z</time>
      </trkpt>
      <trkpt lat="46.87765" lon="5.81558">
        <ele>532</ele>
        <time>2022-06-05T01:13:35Z</time>
      </trkpt>
      <trkpt lat="46.87785" lon="5.81591">
        <ele>536</ele>
        <time>2022-06-05T01:13:59Z</time>
      </trkpt>
      <trkpt lat="46.87796" lon="5.81604">
        <ele>536</ele>
        <time>2022-06-05T01:14:11Z</time>
      </trkpt>
      <trkpt lat="46.87809" lon="5.81628">
        <ele>537</ele>
        <time>2022-06-05T01:14:28Z</time>
      </trkpt>
      <trkpt lat="46.87876" lon="5.81707">
        <ele>537</ele>
        <time>2022-06-05T01:15:36Z</time>
      </trkpt>
      <trkpt lat="46.87882" lon="5.81738">
        <ele>537</ele>
        <time>2022-06-05T01:15:54Z</time>
      </trkpt>
      <trkpt lat="46.87894" lon="5.8176">
        <ele>537</ele>
        <time>2022-06-05T01:16:09Z</time>
      </trkpt>
      <trkpt lat="46.87929" lon="5.8181">
        <ele>537</ele>
        <time>2022-06-05T01:16:48Z</time>
      </trkpt>
      <trkpt lat="46.87945" lon="5.81838">
        <ele>538</ele>
        <time>2022-06-05T01:17:08Z</time>
      </trkpt>
      <trkpt lat="46.87962" lon="5.81863">
        <ele>539</ele>
        <time>2022-06-05T01:17:28Z</time>
      </trkpt>
      <trkpt lat="46.87966" lon="5.81873">
        <ele>539</ele>
        <time>2022-06-05T01:17:34Z</time>
      </trkpt>
      <trkpt lat="46.87972" lon="5.81894">
        <ele>539</ele>
        <time>2022-06-05T01:17:46Z</time>
      </trkpt>
      <trkpt lat="46.88042" lon="5.82011">
        <ele>540</ele>
        <time>2022-06-05T01:19:12Z</time>
      </trkpt>
      <trkpt lat="46.88065" lon="5.82056">
        <ele>540</ele>
        <time>2022-06-05T01:19:42Z</time>
      </trkpt>
      <trkpt lat="46.8808" lon="5.82091">
        <ele>538</ele>
        <time>2022-06-05T01:20:05Z</time>
      </trkpt>
      <trkpt lat="46.881" lon="5.82131">
        <ele>538</ele>
        <time>2022-06-05T01:20:32Z</time>
      </trkpt>
      <trkpt lat="46.88123" lon="5.82171">
        <ele>538</ele>
        <time>2022-06-05T01:21:01Z</time>
      </trkpt>
      <trkpt lat="46.88169" lon="5.82235">
        <ele>538</ele>
        <time>2022-06-05T01:21:52Z</time>
      </trkpt>
      <trkpt lat="46.88195" lon="5.82276">
        <ele>538</ele>
        <time>2022-06-05T01:22:22Z</time>
      </trkpt>
      <trkpt lat="46.88209" lon="5.82303">
        <ele>538</ele>
        <time>2022-06-05T01:22:41Z</time>
      </trkpt>
      <trkpt lat="46.88266" lon="5.82384">
        <ele>537</ele>
        <time>2022-06-05T01:23:45Z</time>
      </trkpt>
      <trkpt lat="46.88296" lon="5.82416">
        <ele>538</ele>
        <time>2022-06-05T01:24:14Z</time>
      </trkpt>
      <trkpt lat="46.88382" lon="5.82535">
        <ele>538</ele>
        <time>2022-06-05T01:25:49Z</time>
      </trkpt>
      <trkpt lat="46.88443" lon="5.82643">
        <ele>539</ele>
        <time>2022-06-05T01:27:06Z</time>
      </trkpt>
      <trkpt lat="46.88457" lon="5.82676">
        <ele>540</ele>
        <time>2022-06-05T01:27:27Z</time>
      </trkpt>
      <trkpt lat="46.88469" lon="5.82699">
        <ele>540</ele>
        <time>2022-06-05T01:27:43Z</time>
      </trkpt>
      <trkpt lat="46.88497" lon="5.82714">
        <ele>540</ele>
        <time>2022-06-05T01:28:07Z</time>
      </trkpt>
      <trkpt lat="46.88528" lon="5.82757">
        <ele>540</ele>
        <time>2022-06-05T01:28:41Z</time>
      </trkpt>
      <trkpt lat="46.88573" lon="5.82815">
        <ele>541</ele>
        <time>2022-06-05T01:29:29Z</time>
      </trkpt>
      <trkpt lat="46.88594" lon="5.82846">
        <ele>541</ele>
        <time>2022-06-05T01:29:53Z</time>
      </trkpt>
      <trkpt lat="46.8861" lon="5.82872">
        <ele>542</ele>
        <time>2022-06-05T01:30:12Z</time>
      </trkpt>
      <trkpt lat="46.8862" lon="5.82893">
        <ele>542</ele>
        <time>2022-06-05T01:30:26Z</time>
      </trkpt>
      <trkpt lat="46.8864" lon="5.82949">
        <ele>542</ele>
        <time>2022-06-05T01:31:01Z</time>
      </trkpt>
      <trkpt lat="46.88652" lon="5.82971">
        <ele>541</ele>
        <time>2022-06-05T01:31:16Z</time>
      </trkpt>
      <trkpt lat="46.88679" lon="5.83011">
        <ele>541</ele>
        <time>2022-06-05T01:31:47Z</time>
      </trkpt>
      <trkpt lat="46.88704" lon="5.83057">
        <ele>543</ele>
        <time>2022-06-05T01:32:19Z</time>
      </trkpt>
      <trkpt lat="46.88728" lon="5.83081">
        <ele>543</ele>
        <time>2022-06-05T01:32:42Z</time>
      </trkpt>
      <trkpt lat="46.88758" lon="5.83137">
        <ele>542</ele>
        <time>2022-06-05T01:33:22Z</time>
      </trkpt>
      <trkpt lat="46.8877" lon="5.83152">
        <ele>542</ele>
        <time>2022-06-05T01:33:34Z</time>
      </trkpt>
      <trkpt lat="46.88796" lon="5.83175">
        <ele>541</ele>
        <time>2022-06-05T01:33:59Z</time>
      </trkpt>
      <trkpt lat="46.88801" lon="5.83183">
        <ele>541</ele>
        <time>2022-06-05T01:34:05Z</time>
      </trkpt>
      <trkpt lat="46.88804" lon="5.83193">
        <ele>541</ele>
        <time>2022-06-05T01:34:10Z</time>
      </trkpt>
      <trkpt lat="46.88818" lon="5.83186">
        <ele>541</ele>
        <time>2022-06-05T01:34:22Z</time>
      </trkpt>
      <trkpt lat="46.88849" lon="5.83183">
        <ele>542</ele>
        <time>2022-06-05T01:34:47Z</time>
      </trkpt>
      <trkpt lat="46.88863" lon="5.83176">
        <ele>543</ele>
        <time>2022-06-05T01:34:59Z</time>
      </trkpt>
      <trkpt lat="46.88905" lon="5.83139">
        <ele>546</ele>
        <time>2022-06-05T01:35:39Z</time>
      </trkpt>
      <trkpt lat="46.8898" lon="5.83082">
        <ele>551</ele>
        <time>2022-06-05T01:36:46Z</time>
      </trkpt>
      <trkpt lat="46.89042" lon="5.83021">
        <ele>555</ele>
        <time>2022-06-05T01:37:46Z</time>
      </trkpt>
      <trkpt lat="46.89083" lon="5.82999">
        <ele>559</ele>
        <time>2022-06-05T01:38:21Z</time>
      </trkpt>
      <trkpt lat="46.89119" lon="5.82991">
        <ele>562</ele>
        <time>2022-06-05T01:38:50Z</time>
      </trkpt>
      <trkpt lat="46.89136" lon="5.8298">
        <ele>564</ele>
        <time>2022-06-05T01:39:05Z</time>
      </trkpt>
      <trkpt lat="46.89184" lon="5.82938">
        <ele>566</ele>
        <time>2022-06-05T01:39:50Z</time>
      </trkpt>
      <trkpt lat="46.89247" lon="5.82864">
        <ele>562</ele>
        <time>2022-06-05T01:40:55Z</time>
      </trkpt>
      <trkpt lat="46.89262" lon="5.82862">
        <ele>560</ele>
        <time>2022-06-05T01:41:07Z</time>
      </trkpt>
      <trkpt lat="46.89292" lon="5.8288">
        <ele>558</ele>
        <time>2022-06-05T01:41:33Z</time>
      </trkpt>
      <trkpt lat="46.89359" lon="5.82892">
        <ele>553</ele>
        <time>2022-06-05T01:42:27Z</time>
      </trkpt>
      <trkpt lat="46.89368" lon="5.82891">
        <ele>553</ele>
        <time>2022-06-05T01:42:34Z</time>
      </trkpt>
      <trkpt lat="46.89412" lon="5.82877">
        <ele>549</ele>
        <time>2022-06-05T01:43:10Z</time>
      </trkpt>
      <trkpt lat="46.8942" lon="5.82872">
        <ele>548</ele>
        <time>2022-06-05T01:43:17Z</time>
      </trkpt>
      <trkpt lat="46.89446" lon="5.8285">
        <ele>547</ele>
        <time>2022-06-05T01:43:41Z</time>
      </trkpt>
      <trkpt lat="46.8948" lon="5.82813">
        <ele>548</ele>
        <time>2022-06-05T01:44:15Z</time>
      </trkpt>
      <trkpt lat="46.89497" lon="5.82804">
        <ele>549</ele>
        <time>2022-06-05T01:44:30Z</time>
      </trkpt>
      <trkpt lat="46.8948" lon="5.82813">
        <ele>548</ele>
        <time>2022-06-05T01:44:44Z</time>
      </trkpt>
      <trkpt lat="46.89379" lon="5.8275">
        <ele>547</ele>
        <time>2022-06-05T01:46:13Z</time>
      </trkpt>
      <trkpt lat="46.89334" lon="5.82724">
        <ele>546</ele>
        <time>2022-06-05T01:46:51Z</time>
      </trkpt>
      <trkpt lat="46.89283" lon="5.8267">
        <ele>549</ele>
        <time>2022-06-05T01:47:42Z</time>
      </trkpt>
      <trkpt lat="46.89228" lon="5.82572">
        <ele>541</ele>
        <time>2022-06-05T01:48:51Z</time>
      </trkpt>
      <trkpt lat="46.89166" lon="5.82512">
        <ele>544</ele>
        <time>2022-06-05T01:49:51Z</time>
      </trkpt>
      <trkpt lat="46.89144" lon="5.82436">
        <ele>532</ele>
        <time>2022-06-05T01:50:36Z</time>
      </trkpt>
      <trkpt lat="46.89126" lon="5.8236">
        <ele>516</ele>
        <time>2022-06-05T01:51:20Z</time>
      </trkpt>
      <trkpt lat="46.89071" lon="5.82305">
        <ele>513</ele>
        <time>2022-06-05T01:52:14Z</time>
      </trkpt>
      <trkpt lat="46.89015" lon="5.82223">
        <ele>504</ele>
        <time>2022-06-05T01:53:17Z</time>
      </trkpt>
      <trkpt lat="46.88932" lon="5.82055">
        <ele>502</ele>
        <time>2022-06-05T01:55:10Z</time>
      </trkpt>
      <trkpt lat="46.88912" lon="5.81883">
        <ele>478</ele>
        <time>2022-06-05T01:56:46Z</time>
      </trkpt>
      <trkpt lat="46.88895" lon="5.81821">
        <ele>471</ele>
        <time>2022-06-05T01:57:23Z</time>
      </trkpt>
      <trkpt lat="46.88876" lon="5.81743">
        <ele>457</ele>
        <time>2022-06-05T01:58:08Z</time>
      </trkpt>
      <trkpt lat="46.88843" lon="5.81676">
        <ele>452</ele>
        <time>2022-06-05T01:58:53Z</time>
      </trkpt>
      <trkpt lat="46.8879" lon="5.81571">
        <ele>444</ele>
        <time>2022-06-05T02:00:05Z</time>
      </trkpt>
      <trkpt lat="46.88747" lon="5.81495">
        <ele>437</ele>
        <time>2022-06-05T02:00:59Z</time>
      </trkpt>
      <trkpt lat="46.88695" lon="5.81394">
        <ele>435</ele>
        <time>2022-06-05T02:02:08Z</time>
      </trkpt>
      <trkpt lat="46.88628" lon="5.81291">
        <ele>431</ele>
        <time>2022-06-05T02:03:26Z</time>
      </trkpt>
      <trkpt lat="46.88568" lon="5.81203">
        <ele>423</ele>
        <time>2022-06-05T02:04:34Z</time>
      </trkpt>
      <trkpt lat="46.88523" lon="5.8117">
        <ele>423</ele>
        <time>2022-06-05T02:05:15Z</time>
      </trkpt>
      <trkpt lat="46.88444" lon="5.81097">
        <ele>421</ele>
        <time>2022-06-05T02:06:29Z</time>
      </trkpt>
      <trkpt lat="46.88438" lon="5.81095">
        <ele>422</ele>
        <time>2022-06-05T02:06:34Z</time>
      </trkpt>
      <trkpt lat="46.88434" lon="5.81086">
        <ele>420</ele>
        <time>2022-06-05T02:06:40Z</time>
      </trkpt>
      <trkpt lat="46.88442" lon="5.81065">
        <ele>413</ele>
        <time>2022-06-05T02:06:53Z</time>
      </trkpt>
      <trkpt lat="46.88452" lon="5.81048">
        <ele>406</ele>
        <time>2022-06-05T02:07:06Z</time>
      </trkpt>
      <trkpt lat="46.88469" lon="5.81041">
        <ele>402</ele>
        <time>2022-06-05T02:07:19Z</time>
      </trkpt>
      <trkpt lat="46.88506" lon="5.81034">
        <ele>396</ele>
        <time>2022-06-05T02:07:50Z</time>
      </trkpt>
      <trkpt lat="46.88531" lon="5.81031">
        <ele>393</ele>
        <time>2022-06-05T02:08:10Z</time>
      </trkpt>
      <trkpt lat="46.88556" lon="5.81035">
        <ele>391</ele>
        <time>2022-06-05T02:08:30Z</time>
      </trkpt>
      <trkpt lat="46.88576" lon="5.81029">
        <ele>389</ele>
        <time>2022-06-05T02:08:46Z</time>
      </trkpt>
      <trkpt lat="46.88604" lon="5.81009">
        <ele>385</ele>
        <time>2022-06-05T02:09:11Z</time>
      </trkpt>
      <trkpt lat="46.8861" lon="5.80999">
        <ele>383</ele>
        <time>2022-06-05T02:09:19Z</time>
      </trkpt>
      <trkpt lat="46.88608" lon="5.80986">
        <ele>382</ele>
        <time>2022-06-05T02:09:26Z</time>
      </trkpt>
      <trkpt lat="46.88595" lon="5.80962">
        <ele>381</ele>
        <time>2022-06-05T02:09:42Z</time>
      </trkpt>
      <trkpt lat="46.88577" lon="5.80921">
        <ele>379</ele>
        <time>2022-06-05T02:10:09Z</time>
      </trkpt>
      <trkpt lat="46.88552" lon="5.80897">
        <ele>377</ele>
        <time>2022-06-05T02:10:33Z</time>
      </trkpt>
      <trkpt lat="46.88497" lon="5.80875">
        <ele>374</ele>
        <time>2022-06-05T02:11:19Z</time>
      </trkpt>
      <trkpt lat="46.88477" lon="5.80861">
        <ele>372</ele>
        <time>2022-06-05T02:11:37Z</time>
      </trkpt>
      <trkpt lat="46.88469" lon="5.80844">
        <ele>370</ele>
        <time>2022-06-05T02:11:48Z</time>
      </trkpt>
      <trkpt lat="46.88457" lon="5.80788">
        <ele>362</ele>
        <time>2022-06-05T02:12:20Z</time>
      </trkpt>
      <trkpt lat="46.88451" lon="5.80772">
        <ele>360</ele>
        <time>2022-06-05T02:12:30Z</time>
      </trkpt>
      <trkpt lat="46.88445" lon="5.80761">
        <ele>359</ele>
        <time>2022-06-05T02:12:38Z</time>
      </trkpt>
      <trkpt lat="46.88438" lon="5.80752">
        <ele>357</ele>
        <time>2022-06-05T02:12:46Z</time>
      </trkpt>
      <trkpt lat="46.88414" lon="5.80738">
        <ele>355</ele>
        <time>2022-06-05T02:13:06Z</time>
      </trkpt>
      <trkpt lat="46.884" lon="5.80726">
        <ele>352</ele>
        <time>2022-06-05T02:13:19Z</time>
      </trkpt>
      <trkpt lat="46.88374" lon="5.80695">
        <ele>346</ele>
        <time>2022-06-05T02:13:46Z</time>
      </trkpt>
      <trkpt lat="46.88359" lon="5.80683">
        <ele>343</ele>
        <time>2022-06-05T02:14:00Z</time>
      </trkpt>
      <trkpt lat="46.88345" lon="5.80677">
        <ele>341</ele>
        <time>2022-06-05T02:14:11Z</time>
      </trkpt>
      <trkpt lat="46.88334" lon="5.80678">
        <ele>340</ele>
        <time>2022-06-05T02:14:20Z</time>
      </trkpt>
      <trkpt lat="46.88313" lon="5.80688">
        <ele>338</ele>
        <time>2022-06-05T02:14:38Z</time>
      </trkpt>
      <trkpt lat="46.883" lon="5.80691">
        <ele>336</ele>
        <time>2022-06-05T02:14:48Z</time>
      </trkpt>
      <trkpt lat="46.88288" lon="5.80689">
        <ele>334</ele>
        <time>2022-06-05T02:14:58Z</time>
      </trkpt>
      <trkpt lat="46.88248" lon="5.80665">
        <ele>326</ele>
        <time>2022-06-05T02:15:33Z</time>
      </trkpt>
      <trkpt lat="46.88236" lon="5.80664">
        <ele>325</ele>
        <time>2022-06-05T02:15:42Z</time>
      </trkpt>
      <trkpt lat="46.88203" lon="5.8067">
        <ele>325</ele>
        <time>2022-06-05T02:16:09Z</time>
      </trkpt>
      <trkpt lat="46.8816" lon="5.8067">
        <ele>323</ele>
        <time>2022-06-05T02:16:44Z</time>
      </trkpt>
      <trkpt lat="46.88092" lon="5.80688">
        <ele>324</ele>
        <time>2022-06-05T02:17:39Z</time>
      </trkpt>
      <trkpt lat="46.88073" lon="5.80695">
        <ele>324</ele>
        <time>2022-06-05T02:17:54Z</time>
      </trkpt>
      <trkpt lat="46.8804" lon="5.80723">
        <ele>325</ele>
        <time>2022-06-05T02:18:25Z</time>
      </trkpt>
      <trkpt lat="46.88027" lon="5.80728">
        <ele>325</ele>
        <time>2022-06-05T02:18:36Z</time>
      </trkpt>
      <trkpt lat="46.88" lon="5.80733">
        <ele>325</ele>
        <time>2022-06-05T02:18:58Z</time>
      </trkpt>
      <trkpt lat="46.87993" lon="5.80729">
        <ele>326</ele>
        <time>2022-06-05T02:19:04Z</time>
      </trkpt>
      <trkpt lat="46.87988" lon="5.80724">
        <ele>326</ele>
        <time>2022-06-05T02:19:08Z</time>
      </trkpt>
      <trkpt lat="46.87984" lon="5.80719">
        <ele>326</ele>
        <time>2022-06-05T02:19:13Z</time>
      </trkpt>
      <trkpt lat="46.87982" lon="5.80711">
        <ele>326</ele>
        <time>2022-06-05T02:19:17Z</time>
      </trkpt>
      <trkpt lat="46.87978" lon="5.80662">
        <ele>327</ele>
        <time>2022-06-05T02:19:44Z</time>
      </trkpt>
      <trkpt lat="46.87973" lon="5.80657">
        <ele>327</ele>
        <time>2022-06-05T02:19:49Z</time>
      </trkpt>
      <trkpt lat="46.87967" lon="5.80655">
        <ele>327</ele>
        <time>2022-06-05T02:19:55Z</time>
      </trkpt>
      <trkpt lat="46.87917" lon="5.80644">
        <ele>329</ele>
        <time>2022-06-05T02:20:35Z</time>
      </trkpt>
      <trkpt lat="46.87914" lon="5.8064">
        <ele>329</ele>
        <time>2022-06-05T02:20:38Z</time>
      </trkpt>
      <trkpt lat="46.87912" lon="5.80634">
        <ele>329</ele>
        <time>2022-06-05T02:20:42Z</time>
      </trkpt>
      <trkpt lat="46.87887" lon="5.80649">
        <ele>329</ele>
        <time>2022-06-05T02:21:04Z</time>
      </trkpt>
      <trkpt lat="46.87863" lon="5.80669">
        <ele>329</ele>
        <time>2022-06-05T02:21:26Z</time>
      </trkpt>
      <trkpt lat="46.87839" lon="5.80692">
        <ele>328</ele>
        <time>2022-06-05T02:21:49Z</time>
      </trkpt>
      <trkpt lat="46.87829" lon="5.80702">
        <ele>328</ele>
        <time>2022-06-05T02:21:59Z</time>
      </trkpt>
      <trkpt lat="46.87825" lon="5.80711">
        <ele>328</ele>
        <time>2022-06-05T02:22:05Z</time>
      </trkpt>
      <trkpt lat="46.87794" lon="5.80731">
        <ele>329</ele>
        <time>2022-06-05T02:22:32Z</time>
      </trkpt>
      <trkpt lat="46.87783" lon="5.80734">
        <ele>329</ele>
        <time>2022-06-05T02:22:41Z</time>
      </trkpt>
      <trkpt lat="46.87761" lon="5.8073">
        <ele>329</ele>
        <time>2022-06-05T02:22:59Z</time>
      </trkpt>
      <trkpt lat="46.87738" lon="5.8072">
        <ele>328</ele>
        <time>2022-06-05T02:23:18Z</time>
      </trkpt>
      <trkpt lat="46.87719" lon="5.80715">
        <ele>329</ele>
        <time>2022-06-05T02:23:33Z</time>
      </trkpt>
      <trkpt lat="46.87689" lon="5.80719">
        <ele>329</ele>
        <time>2022-06-05T02:23:57Z</time>
      </trkpt>
      <trkpt lat="46.87675" lon="5.80717">
        <ele>329</ele>
        <time>2022-06-05T02:24:09Z</time>
      </trkpt>
      <trkpt lat="46.87661" lon="5.8071">
        <ele>331</ele>
        <time>2022-06-05T02:24:20Z</time>
      </trkpt>
      <trkpt lat="46.8764" lon="5.80695">
        <ele>333</ele>
        <time>2022-06-05T02:24:39Z</time>
      </trkpt>
      <trkpt lat="46.87593" lon="5.80653">
        <ele>336</ele>
        <time>2022-06-05T02:25:23Z</time>
      </trkpt>
      <trkpt lat="46.87532" lon="5.80603">
        <ele>346</ele>
        <time>2022-06-05T02:26:19Z</time>
      </trkpt>
      <trkpt lat="46.8752" lon="5.80586">
        <ele>345</ele>
        <time>2022-06-05T02:26:33Z</time>
      </trkpt>
      <trkpt lat="46.87507" lon="5.80563">
        <ele>346</ele>
        <time>2022-06-05T02:26:49Z</time>
      </trkpt>
      <trkpt lat="46.87499" lon="5.80553">
        <ele>346</ele>
        <time>2022-06-05T02:26:58Z</time>
      </trkpt>
      <trkpt lat="46.87492" lon="5.80548">
        <ele>346</ele>
        <time>2022-06-05T02:27:04Z</time>
      </trkpt>
      <trkpt lat="46.87455" lon="5.80535">
        <ele>349</ele>
        <time>2022-06-05T02:27:34Z</time>
      </trkpt>
      <trkpt lat="46.87448" lon="5.80534">
        <ele>349</ele>
        <time>2022-06-05T02:27:40Z</time>
      </trkpt>
      <trkpt lat="46.87394" lon="5.80541">
        <ele>356</ele>
        <time>2022-06-05T02:28:23Z</time>
      </trkpt>
      <trkpt lat="46.87369" lon="5.80548">
        <ele>360</ele>
        <time>2022-06-05T02:28:43Z</time>
      </trkpt>
      <trkpt lat="46.87325" lon="5.8055">
        <ele>364</ele>
        <time>2022-06-05T02:29:19Z</time>
      </trkpt>
      <trkpt lat="46.87314" lon="5.80553">
        <ele>364</ele>
        <time>2022-06-05T02:29:28Z</time>
      </trkpt>
      <trkpt lat="46.87272" lon="5.80577">
        <ele>365</ele>
        <time>2022-06-05T02:30:04Z</time>
      </trkpt>
      <trkpt lat="46.87257" lon="5.8059">
        <ele>367</ele>
        <time>2022-06-05T02:30:18Z</time>
      </trkpt>
      <trkpt lat="46.87247" lon="5.80604">
        <ele>371</ele>
        <time>2022-06-05T02:30:29Z</time>
      </trkpt>
      <trkpt lat="46.87239" lon="5.80621">
        <ele>376</ele>
        <time>2022-06-05T02:30:41Z</time>
      </trkpt>
      <trkpt lat="46.87227" lon="5.80647">
        <ele>382</ele>
        <time>2022-06-05T02:30:58Z</time>
      </trkpt>
      <trkpt lat="46.87213" lon="5.80663">
        <ele>384</ele>
        <time>2022-06-05T02:31:12Z</time>
      </trkpt>
      <trkpt lat="46.87202" lon="5.80672">
        <ele>384</ele>
        <time>2022-06-05T02:31:22Z</time>
      </trkpt>
      <trkpt lat="46.87171" lon="5.80704">
        <ele>387</ele>
        <time>2022-06-05T02:31:52Z</time>
      </trkpt>
      <trkpt lat="46.87105" lon="5.80779">
        <ele>395</ele>
        <time>2022-06-05T02:33:00Z</time>
      </trkpt>
      <trkpt lat="46.87083" lon="5.80789">
        <ele>394</ele>
        <time>2022-06-05T02:33:18Z</time>
      </trkpt>
      <trkpt lat="46.87033" lon="5.80797">
        <ele>392</ele>
        <time>2022-06-05T02:33:59Z</time>
      </trkpt>
      <trkpt lat="46.86998" lon="5.80789">
        <ele>389</ele>
        <time>2022-06-05T02:34:27Z</time>
      </trkpt>
      <trkpt lat="46.8699" lon="5.80797">
        <ele>393</ele>
        <time>2022-06-05T02:34:34Z</time>
      </trkpt>
      <trkpt lat="46.86981" lon="5.80802">
        <ele>398</ele>
        <time>2022-06-05T02:34:42Z</time>
      </trkpt>
      <trkpt lat="46.86968" lon="5.80798">
        <ele>402</ele>
        <time>2022-06-05T02:34:52Z</time>
      </trkpt>
      <trkpt lat="46.86959" lon="5.80797">
        <ele>406</ele>
        <time>2022-06-05T02:35:00Z</time>
      </trkpt>
      <trkpt lat="46.86948" lon="5.80791">
        <ele>410</ele>
        <time>2022-06-05T02:35:09Z</time>
      </trkpt>
      <trkpt lat="46.86943" lon="5.80792">
        <ele>413</ele>
        <time>2022-06-05T02:35:13Z</time>
      </trkpt>
      <trkpt lat="46.86939" lon="5.80804">
        <ele>413</ele>
        <time>2022-06-05T02:35:21Z</time>
      </trkpt>
      <trkpt lat="46.8693" lon="5.8081">
        <ele>416</ele>
        <time>2022-06-05T02:35:29Z</time>
      </trkpt>
      <trkpt lat="46.86916" lon="5.80813">
        <ele>421</ele>
        <time>2022-06-05T02:35:40Z</time>
      </trkpt>
      <trkpt lat="46.86914" lon="5.80812">
        <ele>423</ele>
        <time>2022-06-05T02:35:42Z</time>
      </trkpt>
      <trkpt lat="46.86914" lon="5.80801">
        <ele>425</ele>
        <time>2022-06-05T02:35:48Z</time>
      </trkpt>
      <trkpt lat="46.8691" lon="5.80795">
        <ele>429</ele>
        <time>2022-06-05T02:35:53Z</time>
      </trkpt>
      <trkpt lat="46.86914" lon="5.80801">
        <ele>425</ele>
        <time>2022-06-05T02:35:58Z</time>
      </trkpt>
      <trkpt lat="46.86914" lon="5.80812">
        <ele>423</ele>
        <time>2022-06-05T02:36:03Z</time>
      </trkpt>
      <trkpt lat="46.86916" lon="5.80813">
        <ele>421</ele>
        <time>2022-06-05T02:36:05Z</time>
      </trkpt>
      <trkpt lat="46.8693" lon="5.8081">
        <ele>416</ele>
        <time>2022-06-05T02:36:17Z</time>
      </trkpt>
      <trkpt lat="46.86939" lon="5.80804">
        <ele>413</ele>
        <time>2022-06-05T02:36:25Z</time>
      </trkpt>
      <trkpt lat="46.86943" lon="5.80792">
        <ele>413</ele>
        <time>2022-06-05T02:36:32Z</time>
      </trkpt>
      <trkpt lat="46.86948" lon="5.80791">
        <ele>410</ele>
        <time>2022-06-05T02:36:37Z</time>
      </trkpt>
      <trkpt lat="46.86959" lon="5.80797">
        <ele>406</ele>
        <time>2022-06-05T02:36:46Z</time>
      </trkpt>
      <trkpt lat="46.86968" lon="5.80798">
        <ele>402</ele>
        <time>2022-06-05T02:36:53Z</time>
      </trkpt>
      <trkpt lat="46.86981" lon="5.80802">
        <ele>398</ele>
        <time>2022-06-05T02:37:03Z</time>
      </trkpt>
      <trkpt lat="46.8699" lon="5.80797">
        <ele>393</ele>
        <time>2022-06-05T02:37:12Z</time>
      </trkpt>
      <trkpt lat="46.86998" lon="5.80789">
        <ele>389</ele>
        <time>2022-06-05T02:37:19Z</time>
      </trkpt>
      <trkpt lat="46.87033" lon="5.80797">
        <ele>392</ele>
        <time>2022-06-05T02:37:47Z</time>
      </trkpt>
      <trkpt lat="46.8704" lon="5.80783">
        <ele>389</ele>
        <time>2022-06-05T02:37:56Z</time>
      </trkpt>
      <trkpt lat="46.87053" lon="5.80727">
        <ele>383</ele>
        <time>2022-06-05T02:38:29Z</time>
      </trkpt>
      <trkpt lat="46.87066" lon="5.80715">
        <ele>382</ele>
        <time>2022-06-05T02:38:41Z</time>
      </trkpt>
      <trkpt lat="46.87082" lon="5.80711">
        <ele>381</ele>
        <time>2022-06-05T02:38:55Z</time>
      </trkpt>
      <trkpt lat="46.871" lon="5.80701">
        <ele>381</ele>
        <time>2022-06-05T02:39:10Z</time>
      </trkpt>
      <trkpt lat="46.87114" lon="5.80685">
        <ele>380</ele>
        <time>2022-06-05T02:39:24Z</time>
      </trkpt>
      <trkpt lat="46.87119" lon="5.80663">
        <ele>378</ele>
        <time>2022-06-05T02:39:37Z</time>
      </trkpt>
      <trkpt lat="46.87124" lon="5.80613">
        <ele>375</ele>
        <time>2022-06-05T02:40:05Z</time>
      </trkpt>
      <trkpt lat="46.87132" lon="5.80593">
        <ele>374</ele>
        <time>2022-06-05T02:40:17Z</time>
      </trkpt>
      <trkpt lat="46.87162" lon="5.80584">
        <ele>370</ele>
        <time>2022-06-05T02:40:42Z</time>
      </trkpt>
      <trkpt lat="46.87198" lon="5.80539">
        <ele>362</ele>
        <time>2022-06-05T02:41:20Z</time>
      </trkpt>
      <trkpt lat="46.87188" lon="5.80522">
        <ele>361</ele>
        <time>2022-06-05T02:41:32Z</time>
      </trkpt>
      <trkpt lat="46.87186" lon="5.80491">
        <ele>360</ele>
        <time>2022-06-05T02:41:48Z</time>
      </trkpt>
      <trkpt lat="46.87193" lon="5.80466">
        <ele>362</ele>
        <time>2022-06-05T02:42:03Z</time>
      </trkpt>
      <trkpt lat="46.87197" lon="5.80458">
        <ele>362</ele>
        <time>2022-06-05T02:42:09Z</time>
      </trkpt>
      <trkpt lat="46.87196" lon="5.80448">
        <ele>363</ele>
        <time>2022-06-05T02:42:14Z</time>
      </trkpt>
      <trkpt lat="46.87177" lon="5.80404">
        <ele>372</ele>
        <time>2022-06-05T02:42:43Z</time>
      </trkpt>
      <trkpt lat="46.87194" lon="5.80379">
        <ele>374</ele>
        <time>2022-06-05T02:43:02Z</time>
      </trkpt>
      <trkpt lat="46.87207" lon="5.80369">
        <ele>373</ele>
        <time>2022-06-05T02:43:14Z</time>
      </trkpt>
      <trkpt lat="46.87215" lon="5.80364">
        <ele>371</ele>
        <time>2022-06-05T02:43:22Z</time>
      </trkpt>
      <trkpt lat="46.87224" lon="5.80362">
        <ele>369</ele>
        <time>2022-06-05T02:43:29Z</time>
      </trkpt>
      <trkpt lat="46.87243" lon="5.80363">
        <ele>363</ele>
        <time>2022-06-05T02:43:44Z</time>
      </trkpt>
      <trkpt lat="46.87249" lon="5.80353">
        <ele>362</ele>
        <time>2022-06-05T02:43:51Z</time>
      </trkpt>
      <trkpt lat="46.87253" lon="5.80325">
        <ele>364</ele>
        <time>2022-06-05T02:44:07Z</time>
      </trkpt>
      <trkpt lat="46.87263" lon="5.8028">
        <ele>369</ele>
        <time>2022-06-05T02:44:33Z</time>
      </trkpt>
      <trkpt lat="46.87275" lon="5.80261">
        <ele>369</ele>
        <time>2022-06-05T02:44:47Z</time>
      </trkpt>
      <trkpt lat="46.87287" lon="5.80252">
        <ele>369</ele>
        <time>2022-06-05T02:44:58Z</time>
      </trkpt>
      <trkpt lat="46.87313" lon="5.80238">
        <ele>367</ele>
        <time>2022-06-05T02:45:20Z</time>
      </trkpt>
      <trkpt lat="46.87324" lon="5.8024">
        <ele>365</ele>
        <time>2022-06-05T02:45:29Z</time>
      </trkpt>
      <trkpt lat="46.87339" lon="5.80252">
        <ele>362</ele>
        <time>2022-06-05T02:45:43Z</time>
      </trkpt>
      <trkpt lat="46.87369" lon="5.80282">
        <ele>360</ele>
        <time>2022-06-05T02:46:12Z</time>
      </trkpt>
      <trkpt lat="46.87377" lon="5.80286">
        <ele>360</ele>
        <time>2022-06-05T02:46:18Z</time>
      </trkpt>
      <trkpt lat="46.87394" lon="5.80288">
        <ele>361</ele>
        <time>2022-06-05T02:46:32Z</time>
      </trkpt>
      <trkpt lat="46.8741" lon="5.80298">
        <ele>360</ele>
        <time>2022-06-05T02:46:46Z</time>
      </trkpt>
      <trkpt lat="46.87425" lon="5.80304">
        <ele>361</ele>
        <time>2022-06-05T02:46:59Z</time>
      </trkpt>
      <trkpt lat="46.87466" lon="5.80325">
        <ele>359</ele>
        <time>2022-06-05T02:47:33Z</time>
      </trkpt>
      <trkpt lat="46.87475" lon="5.80327">
        <ele>360</ele>
        <time>2022-06-05T02:47:41Z</time>
      </trkpt>
      <trkpt lat="46.87519" lon="5.80358">
        <ele>358</ele>
        <time>2022-06-05T02:48:20Z</time>
      </trkpt>
      <trkpt lat="46.87549" lon="5.80398">
        <ele>353</ele>
        <time>2022-06-05T02:48:53Z</time>
      </trkpt>
      <trkpt lat="46.87566" lon="5.80427">
        <ele>348</ele>
        <time>2022-06-05T02:49:13Z</time>
      </trkpt>
      <trkpt lat="46.87577" lon="5.80439">
        <ele>347</ele>
        <time>2022-06-05T02:49:25Z</time>
      </trkpt>
      <trkpt lat="46.87588" lon="5.80445">
        <ele>347</ele>
        <time>2022-06-05T02:49:34Z</time>
      </trkpt>
      <trkpt lat="46.87613" lon="5.80453">
        <ele>348</ele>
        <time>2022-06-05T02:49:54Z</time>
      </trkpt>
      <trkpt lat="46.87624" lon="5.80463">
        <ele>347</ele>
        <time>2022-06-05T02:50:05Z</time>
      </trkpt>
      <trkpt lat="46.87629" lon="5.80477">
        <ele>344</ele>
        <time>2022-06-05T02:50:13Z</time>
      </trkpt>
      <trkpt lat="46.87634" lon="5.80515">
        <ele>337</ele>
        <time>2022-06-05T02:50:35Z</time>
      </trkpt>
      <trkpt lat="46.87639" lon="5.8053">
        <ele>336</ele>
        <time>2022-06-05T02:50:44Z</time>
      </trkpt>
      <trkpt lat="46.87646" lon="5.80542">
        <ele>335</ele>
        <time>2022-06-05T02:50:52Z</time>
      </trkpt>
      <trkpt lat="46.87669" lon="5.80557">
        <ele>332</ele>
        <time>2022-06-05T02:51:12Z</time>
      </trkpt>
      <trkpt lat="46.87696" lon="5.80564">
        <ele>332</ele>
        <time>2022-06-05T02:51:35Z</time>
      </trkpt>
      <trkpt lat="46.87747" lon="5.80571">
        <ele>330</ele>
        <time>2022-06-05T02:52:15Z</time>
      </trkpt>
      <trkpt lat="46.87776" lon="5.8057">
        <ele>330</ele>
        <time>2022-06-05T02:52:39Z</time>
      </trkpt>
      <trkpt lat="46.8781" lon="5.80559">
        <ele>330</ele>
        <time>2022-06-05T02:53:07Z</time>
      </trkpt>
      <trkpt lat="46.87857" lon="5.80536">
        <ele>331</ele>
        <time>2022-06-05T02:53:46Z</time>
      </trkpt>
      <trkpt lat="46.87863" lon="5.80536">
        <ele>331</ele>
        <time>2022-06-05T02:53:51Z</time>
      </trkpt>
    </trkseg>
  </trk>
</gpx>